sensor_id;sensor_type;location;lat;lon;timestamp;P1;durP1;ratioP1;P2;durP2;ratioP2
51718;SDS011;37795;53.236;5.704;2023-07-30T00:01:32;12.43;;;10.00;;
51718;SDS011;37795;53.236;5.704;2023-07-30T00:03:58;25.92;;;10.88;;
51718;SDS011;37795;53.236;5.704;2023-07-30T00:06:24;19.63;;;10.63;;
51718;SDS011;37795;53.236;5.704;2023-07-30T00:08:50;16.88;;;11.23;;
51718;SDS011;37795;53.236;5.704;2023-07-30T00:11:16;24.45;;;10.88;;
51718;SDS011;37795;53.236;5.704;2023-07-30T00:13:41;18.13;;;10.73;;
51718;SDS011;37795;53.236;5.704;2023-07-30T00:16:07;19.75;;;9.70;;
51718;SDS011;37795;53.236;5.704;2023-07-30T00:18:33;21.87;;;11.43;;
51718;SDS011;37795;53.236;5.704;2023-07-30T00:20:59;20.65;;;11.20;;
51718;SDS011;37795;53.236;5.704;2023-07-30T00:23:25;27.70;;;13.13;;
51718;SDS011;37795;53.236;5.704;2023-07-30T00:25:50;23.60;;;11.03;;
51718;SDS011;37795;53.236;5.704;2023-07-30T00:28:16;18.60;;;12.17;;
51718;SDS011;37795;53.236;5.704;2023-07-30T00:30:42;27.55;;;11.88;;
51718;SDS011;37795;53.236;5.704;2023-07-30T00:33:07;27.58;;;11.32;;
51718;SDS011;37795;53.236;5.704;2023-07-30T00:35:33;33.17;;;11.67;;
51718;SDS011;37795;53.236;5.704;2023-07-30T00:37:59;25.83;;;10.70;;
51718;SDS011;37795;53.236;5.704;2023-07-30T00:40:24;26.53;;;12.00;;
51718;SDS011;37795;53.236;5.704;2023-07-30T00:42:50;20.13;;;11.40;;
51718;SDS011;37795;53.236;5.704;2023-07-30T00:45:16;26.97;;;13.23;;
51718;SDS011;37795;53.236;5.704;2023-07-30T00:47:42;23.00;;;10.95;;
51718;SDS011;37795;53.236;5.704;2023-07-30T00:50:08;21.20;;;11.88;;
51718;SDS011;37795;53.236;5.704;2023-07-30T00:52:37;23.35;;;11.90;;
51718;SDS011;37795;53.236;5.704;2023-07-30T00:55:03;23.05;;;12.00;;
51718;SDS011;37795;53.236;5.704;2023-07-30T00:57:29;26.10;;;10.23;;
51718;SDS011;37795;53.236;5.704;2023-07-30T00:59:55;17.63;;;11.55;;
51718;SDS011;37795;53.236;5.704;2023-07-30T01:02:22;17.73;;;10.45;;
51718;SDS011;37795;53.236;5.704;2023-07-30T01:04:48;18.40;;;10.80;;
51718;SDS011;37795;53.236;5.704;2023-07-30T01:09:40;19.98;;;11.80;;
51718;SDS011;37795;53.236;5.704;2023-07-30T01:12:06;21.73;;;12.38;;
51718;SDS011;37795;53.236;5.704;2023-07-30T01:14:32;22.10;;;10.18;;
51718;SDS011;37795;53.236;5.704;2023-07-30T01:17:00;34.90;;;13.00;;
51718;SDS011;37795;53.236;5.704;2023-07-30T01:19:26;30.02;;;10.82;;
51718;SDS011;37795;53.236;5.704;2023-07-30T01:21:51;25.00;;;11.40;;
51718;SDS011;37795;53.236;5.704;2023-07-30T01:24:17;22.60;;;10.77;;
51718;SDS011;37795;53.236;5.704;2023-07-30T01:26:43;32.72;;;12.43;;
51718;SDS011;37795;53.236;5.704;2023-07-30T01:29:14;22.48;;;10.73;;
51718;SDS011;37795;53.236;5.704;2023-07-30T01:31:46;22.70;;;11.60;;
51718;SDS011;37795;53.236;5.704;2023-07-30T01:34:18;33.55;;;11.85;;
51718;SDS011;37795;53.236;5.704;2023-07-30T01:36:45;26.25;;;12.15;;
51718;SDS011;37795;53.236;5.704;2023-07-30T01:39:12;21.50;;;10.65;;
51718;SDS011;37795;53.236;5.704;2023-07-30T01:41:38;28.98;;;12.55;;
51718;SDS011;37795;53.236;5.704;2023-07-30T01:44:03;35.17;;;14.13;;
51718;SDS011;37795;53.236;5.704;2023-07-30T01:46:29;22.60;;;11.60;;
51718;SDS011;37795;53.236;5.704;2023-07-30T01:48:55;23.70;;;11.73;;
51718;SDS011;37795;53.236;5.704;2023-07-30T01:51:20;26.83;;;11.43;;
51718;SDS011;37795;53.236;5.704;2023-07-30T01:53:46;21.10;;;10.43;;
51718;SDS011;37795;53.236;5.704;2023-07-30T01:56:12;28.33;;;11.03;;
51718;SDS011;37795;53.236;5.704;2023-07-30T01:58:37;19.77;;;11.37;;
51718;SDS011;37795;53.236;5.704;2023-07-30T02:01:03;25.17;;;12.20;;
51718;SDS011;37795;53.236;5.704;2023-07-30T02:03:29;31.15;;;12.77;;
51718;SDS011;37795;53.236;5.704;2023-07-30T02:05:54;32.27;;;12.43;;
51718;SDS011;37795;53.236;5.704;2023-07-30T02:08:20;22.30;;;11.77;;
51718;SDS011;37795;53.236;5.704;2023-07-30T02:10:54;17.67;;;10.97;;
51718;SDS011;37795;53.236;5.704;2023-07-30T02:13:20;18.92;;;9.82;;
51718;SDS011;37795;53.236;5.704;2023-07-30T02:15:46;28.17;;;13.07;;
51718;SDS011;37795;53.236;5.704;2023-07-30T02:18:11;27.53;;;11.33;;
51718;SDS011;37795;53.236;5.704;2023-07-30T02:20:37;23.33;;;10.37;;
51718;SDS011;37795;53.236;5.704;2023-07-30T02:23:03;36.67;;;11.63;;
51718;SDS011;37795;53.236;5.704;2023-07-30T02:25:28;25.57;;;11.73;;
51718;SDS011;37795;53.236;5.704;2023-07-30T02:27:54;23.73;;;10.55;;
51718;SDS011;37795;53.236;5.704;2023-07-30T02:30:21;29.50;;;12.40;;
51718;SDS011;37795;53.236;5.704;2023-07-30T02:32:46;33.15;;;11.23;;
51718;SDS011;37795;53.236;5.704;2023-07-30T02:35:12;23.03;;;11.87;;
51718;SDS011;37795;53.236;5.704;2023-07-30T02:37:38;21.93;;;10.47;;
51718;SDS011;37795;53.236;5.704;2023-07-30T02:40:04;17.67;;;10.93;;
51718;SDS011;37795;53.236;5.704;2023-07-30T02:42:30;33.70;;;10.82;;
51718;SDS011;37795;53.236;5.704;2023-07-30T02:44:56;28.50;;;10.68;;
51718;SDS011;37795;53.236;5.704;2023-07-30T02:47:22;24.13;;;10.25;;
51718;SDS011;37795;53.236;5.704;2023-07-30T02:49:47;23.10;;;9.70;;
51718;SDS011;37795;53.236;5.704;2023-07-30T02:52:13;19.87;;;8.83;;
51718;SDS011;37795;53.236;5.704;2023-07-30T02:54:39;22.80;;;8.87;;
51718;SDS011;37795;53.236;5.704;2023-07-30T02:57:05;30.73;;;7.80;;
51718;SDS011;37795;53.236;5.704;2023-07-30T02:59:30;21.25;;;8.35;;
51718;SDS011;37795;53.236;5.704;2023-07-30T03:01:56;18.67;;;7.77;;
51718;SDS011;37795;53.236;5.704;2023-07-30T03:04:22;13.23;;;6.67;;
51718;SDS011;37795;53.236;5.704;2023-07-30T03:06:47;21.63;;;7.18;;
51718;SDS011;37795;53.236;5.704;2023-07-30T03:09:13;18.37;;;6.97;;
51718;SDS011;37795;53.236;5.704;2023-07-30T03:11:39;13.50;;;5.80;;
51718;SDS011;37795;53.236;5.704;2023-07-30T03:14:04;15.63;;;7.57;;
51718;SDS011;37795;53.236;5.704;2023-07-30T03:16:30;14.20;;;6.07;;
51718;SDS011;37795;53.236;5.704;2023-07-30T03:18:56;8.13;;;4.82;;
51718;SDS011;37795;53.236;5.704;2023-07-30T03:21:21;11.73;;;5.03;;
51718;SDS011;37795;53.236;5.704;2023-07-30T03:23:47;10.37;;;4.63;;
51718;SDS011;37795;53.236;5.704;2023-07-30T03:26:13;7.32;;;4.60;;
51718;SDS011;37795;53.236;5.704;2023-07-30T03:28:39;8.48;;;4.65;;
51718;SDS011;37795;53.236;5.704;2023-07-30T03:31:04;10.33;;;4.50;;
51718;SDS011;37795;53.236;5.704;2023-07-30T03:33:30;11.97;;;4.17;;
51718;SDS011;37795;53.236;5.704;2023-07-30T03:35:56;8.63;;;4.20;;
51718;SDS011;37795;53.236;5.704;2023-07-30T03:38:22;13.37;;;4.70;;
51718;SDS011;37795;53.236;5.704;2023-07-30T03:40:48;11.77;;;3.60;;
51718;SDS011;37795;53.236;5.704;2023-07-30T03:43:14;10.07;;;4.47;;
51718;SDS011;37795;53.236;5.704;2023-07-30T03:45:39;12.97;;;4.57;;
51718;SDS011;37795;53.236;5.704;2023-07-30T03:48:05;11.47;;;4.20;;
51718;SDS011;37795;53.236;5.704;2023-07-30T03:50:31;17.43;;;4.40;;
51718;SDS011;37795;53.236;5.704;2023-07-30T03:52:56;6.70;;;4.17;;
51718;SDS011;37795;53.236;5.704;2023-07-30T03:55:23;13.35;;;3.70;;
51718;SDS011;37795;53.236;5.704;2023-07-30T03:57:49;16.20;;;4.45;;
51718;SDS011;37795;53.236;5.704;2023-07-30T04:00:15;9.93;;;3.80;;
51718;SDS011;37795;53.236;5.704;2023-07-30T04:02:40;14.05;;;4.38;;
51718;SDS011;37795;53.236;5.704;2023-07-30T04:05:06;11.13;;;4.40;;
51718;SDS011;37795;53.236;5.704;2023-07-30T04:07:32;10.23;;;4.57;;
51718;SDS011;37795;53.236;5.704;2023-07-30T04:09:57;10.90;;;4.80;;
51718;SDS011;37795;53.236;5.704;2023-07-30T04:12:23;12.00;;;4.97;;
51718;SDS011;37795;53.236;5.704;2023-07-30T04:14:49;9.90;;;4.33;;
51718;SDS011;37795;53.236;5.704;2023-07-30T04:17:15;12.45;;;5.50;;
51718;SDS011;37795;53.236;5.704;2023-07-30T04:19:40;13.67;;;4.60;;
51718;SDS011;37795;53.236;5.704;2023-07-30T04:22:06;9.47;;;4.67;;
51718;SDS011;37795;53.236;5.704;2023-07-30T04:24:32;14.85;;;4.57;;
51718;SDS011;37795;53.236;5.704;2023-07-30T04:26:57;12.33;;;5.80;;
51718;SDS011;37795;53.236;5.704;2023-07-30T04:29:25;13.10;;;4.72;;
51718;SDS011;37795;53.236;5.704;2023-07-30T04:31:51;19.87;;;5.97;;
51718;SDS011;37795;53.236;5.704;2023-07-30T04:34:17;18.60;;;6.27;;
51718;SDS011;37795;53.236;5.704;2023-07-30T04:36:42;15.07;;;5.67;;
51718;SDS011;37795;53.236;5.704;2023-07-30T04:39:08;14.50;;;5.53;;
51718;SDS011;37795;53.236;5.704;2023-07-30T04:41:34;15.38;;;6.40;;
51718;SDS011;37795;53.236;5.704;2023-07-30T04:43:59;15.37;;;6.10;;
51718;SDS011;37795;53.236;5.704;2023-07-30T04:46:25;14.60;;;5.23;;
51718;SDS011;37795;53.236;5.704;2023-07-30T04:48:51;13.18;;;4.82;;
51718;SDS011;37795;53.236;5.704;2023-07-30T04:51:16;20.93;;;6.60;;
51718;SDS011;37795;53.236;5.704;2023-07-30T04:53:42;20.57;;;5.80;;
51718;SDS011;37795;53.236;5.704;2023-07-30T04:56:08;12.57;;;5.23;;
51718;SDS011;37795;53.236;5.704;2023-07-30T04:58:33;17.23;;;5.87;;
51718;SDS011;37795;53.236;5.704;2023-07-30T05:00:59;18.97;;;5.60;;
51718;SDS011;37795;53.236;5.704;2023-07-30T05:03:25;12.43;;;5.28;;
51718;SDS011;37795;53.236;5.704;2023-07-30T05:05:50;10.40;;;5.33;;
51718;SDS011;37795;53.236;5.704;2023-07-30T05:08:16;17.97;;;6.10;;
51718;SDS011;37795;53.236;5.704;2023-07-30T05:10:42;16.33;;;4.45;;
51718;SDS011;37795;53.236;5.704;2023-07-30T05:13:07;9.87;;;5.80;;
51718;SDS011;37795;53.236;5.704;2023-07-30T05:15:34;18.63;;;6.18;;
51718;SDS011;37795;53.236;5.704;2023-07-30T05:17:59;18.02;;;6.25;;
51718;SDS011;37795;53.236;5.704;2023-07-30T05:20:25;8.90;;;4.73;;
51718;SDS011;37795;53.236;5.704;2023-07-30T05:22:51;16.77;;;6.17;;
51718;SDS011;37795;53.236;5.704;2023-07-30T05:25:16;11.73;;;4.93;;
51718;SDS011;37795;53.236;5.704;2023-07-30T05:27:42;11.13;;;5.23;;
51718;SDS011;37795;53.236;5.704;2023-07-30T05:30:08;10.57;;;5.57;;
51718;SDS011;37795;53.236;5.704;2023-07-30T05:32:34;8.05;;;5.55;;
51718;SDS011;37795;53.236;5.704;2023-07-30T05:34:59;18.33;;;6.63;;
51718;SDS011;37795;53.236;5.704;2023-07-30T05:37:25;11.70;;;5.67;;
51718;SDS011;37795;53.236;5.704;2023-07-30T05:39:51;11.03;;;4.93;;
51718;SDS011;37795;53.236;5.704;2023-07-30T05:42:16;15.10;;;5.00;;
51718;SDS011;37795;53.236;5.704;2023-07-30T05:44:42;20.57;;;6.30;;
51718;SDS011;37795;53.236;5.704;2023-07-30T05:47:08;13.53;;;4.90;;
51718;SDS011;37795;53.236;5.704;2023-07-30T05:49:33;13.43;;;5.87;;
51718;SDS011;37795;53.236;5.704;2023-07-30T05:51:59;32.03;;;5.27;;
51718;SDS011;37795;53.236;5.704;2023-07-30T05:54:25;20.13;;;6.17;;
51718;SDS011;37795;53.236;5.704;2023-07-30T05:56:50;14.13;;;5.43;;
51718;SDS011;37795;53.236;5.704;2023-07-30T05:59:16;13.93;;;5.03;;
51718;SDS011;37795;53.236;5.704;2023-07-30T06:01:42;17.57;;;6.03;;
51718;SDS011;37795;53.236;5.704;2023-07-30T06:04:07;14.37;;;5.40;;
51718;SDS011;37795;53.236;5.704;2023-07-30T06:06:33;16.90;;;5.33;;
51718;SDS011;37795;53.236;5.704;2023-07-30T06:08:59;10.83;;;5.33;;
51718;SDS011;37795;53.236;5.704;2023-07-30T06:11:24;12.87;;;5.77;;
51718;SDS011;37795;53.236;5.704;2023-07-30T06:13:50;19.90;;;5.23;;
51718;SDS011;37795;53.236;5.704;2023-07-30T06:16:16;15.17;;;4.47;;
51718;SDS011;37795;53.236;5.704;2023-07-30T06:18:43;14.93;;;5.72;;
51718;SDS011;37795;53.236;5.704;2023-07-30T06:21:08;12.27;;;5.70;;
51718;SDS011;37795;53.236;5.704;2023-07-30T06:23:34;15.40;;;4.77;;
51718;SDS011;37795;53.236;5.704;2023-07-30T06:26:00;14.07;;;5.10;;
51718;SDS011;37795;53.236;5.704;2023-07-30T06:28:25;12.63;;;4.63;;
51718;SDS011;37795;53.236;5.704;2023-07-30T06:30:51;13.53;;;4.90;;
51718;SDS011;37795;53.236;5.704;2023-07-30T06:33:17;13.02;;;4.88;;
51718;SDS011;37795;53.236;5.704;2023-07-30T06:35:42;18.77;;;5.20;;
51718;SDS011;37795;53.236;5.704;2023-07-30T06:38:08;7.20;;;4.20;;
51718;SDS011;37795;53.236;5.704;2023-07-30T06:40:34;9.05;;;4.28;;
51718;SDS011;37795;53.236;5.704;2023-07-30T06:43:00;14.50;;;4.67;;
51718;SDS011;37795;53.236;5.704;2023-07-30T06:45:25;17.85;;;5.50;;
51718;SDS011;37795;53.236;5.704;2023-07-30T06:54:59;21.02;;;6.20;;
51718;SDS011;37795;53.236;5.704;2023-07-30T06:57:25;17.20;;;5.70;;
51718;SDS011;37795;53.236;5.704;2023-07-30T06:59:51;15.27;;;4.77;;
51718;SDS011;37795;53.236;5.704;2023-07-30T07:02:16;12.57;;;5.67;;
51718;SDS011;37795;53.236;5.704;2023-07-30T07:04:42;8.27;;;4.93;;
51718;SDS011;37795;53.236;5.704;2023-07-30T07:07:08;10.80;;;4.57;;
51718;SDS011;37795;53.236;5.704;2023-07-30T07:09:34;12.05;;;4.93;;
51718;SDS011;37795;53.236;5.704;2023-07-30T07:12:00;10.47;;;5.43;;
51718;SDS011;37795;53.236;5.704;2023-07-30T07:14:26;19.33;;;5.45;;
51718;SDS011;37795;53.236;5.704;2023-07-30T07:16:52;12.60;;;5.30;;
51718;SDS011;37795;53.236;5.704;2023-07-30T07:19:20;8.85;;;4.70;;
51718;SDS011;37795;53.236;5.704;2023-07-30T07:21:45;10.17;;;4.27;;
51718;SDS011;37795;53.236;5.704;2023-07-30T07:24:11;8.53;;;4.07;;
51718;SDS011;37795;53.236;5.704;2023-07-30T07:26:37;12.93;;;5.70;;
51718;SDS011;37795;53.236;5.704;2023-07-30T07:29:02;14.97;;;4.70;;
51718;SDS011;37795;53.236;5.704;2023-07-30T07:31:28;16.73;;;6.88;;
51718;SDS011;37795;53.236;5.704;2023-07-30T07:33:54;16.65;;;5.90;;
51718;SDS011;37795;53.236;5.704;2023-07-30T07:36:20;10.38;;;5.22;;
51718;SDS011;37795;53.236;5.704;2023-07-30T07:38:46;12.82;;;4.90;;
51718;SDS011;37795;53.236;5.704;2023-07-30T07:41:15;13.60;;;5.18;;
51718;SDS011;37795;53.236;5.704;2023-07-30T07:43:45;14.32;;;5.93;;
51718;SDS011;37795;53.236;5.704;2023-07-30T07:46:12;16.05;;;5.07;;
51718;SDS011;37795;53.236;5.704;2023-07-30T07:48:41;14.90;;;5.63;;
51718;SDS011;37795;53.236;5.704;2023-07-30T07:51:08;8.52;;;4.55;;
51718;SDS011;37795;53.236;5.704;2023-07-30T07:53:38;14.45;;;4.50;;
51718;SDS011;37795;53.236;5.704;2023-07-30T07:56:04;15.05;;;5.65;;
51718;SDS011;37795;53.236;5.704;2023-07-30T07:58:30;14.07;;;6.00;;
51718;SDS011;37795;53.236;5.704;2023-07-30T08:03:23;9.27;;;4.53;;
51718;SDS011;37795;53.236;5.704;2023-07-30T08:05:49;9.50;;;5.30;;
51718;SDS011;37795;53.236;5.704;2023-07-30T08:08:15;15.70;;;5.45;;
51718;SDS011;37795;53.236;5.704;2023-07-30T08:10:41;9.77;;;5.18;;
51718;SDS011;37795;53.236;5.704;2023-07-30T08:13:12;8.20;;;5.00;;
51718;SDS011;37795;53.236;5.704;2023-07-30T08:15:38;14.30;;;5.43;;
51718;SDS011;37795;53.236;5.704;2023-07-30T08:18:04;20.42;;;5.63;;
51718;SDS011;37795;53.236;5.704;2023-07-30T08:20:30;12.80;;;5.57;;
51718;SDS011;37795;53.236;5.704;2023-07-30T08:22:56;14.23;;;5.40;;
51718;SDS011;37795;53.236;5.704;2023-07-30T08:25:21;9.00;;;4.47;;
51718;SDS011;37795;53.236;5.704;2023-07-30T08:27:47;19.33;;;6.05;;
51718;SDS011;37795;53.236;5.704;2023-07-30T08:30:13;15.98;;;6.38;;
51718;SDS011;37795;53.236;5.704;2023-07-30T08:32:39;9.80;;;4.88;;
51718;SDS011;37795;53.236;5.704;2023-07-30T08:35:06;12.38;;;5.20;;
51718;SDS011;37795;53.236;5.704;2023-07-30T08:39:58;23.17;;;7.03;;
51718;SDS011;37795;53.236;5.704;2023-07-30T08:42:24;11.15;;;4.68;;
51718;SDS011;37795;53.236;5.704;2023-07-30T08:44:50;10.85;;;4.70;;
51718;SDS011;37795;53.236;5.704;2023-07-30T08:47:16;14.10;;;4.60;;
51718;SDS011;37795;53.236;5.704;2023-07-30T08:49:41;8.23;;;4.05;;
51718;SDS011;37795;53.236;5.704;2023-07-30T08:52:08;10.80;;;4.85;;
51718;SDS011;37795;53.236;5.704;2023-07-30T08:54:36;10.48;;;5.03;;
51718;SDS011;37795;53.236;5.704;2023-07-30T08:57:03;12.63;;;6.07;;
51718;SDS011;37795;53.236;5.704;2023-07-30T08:59:31;12.80;;;5.20;;
51718;SDS011;37795;53.236;5.704;2023-07-30T09:02:02;7.50;;;3.92;;
51718;SDS011;37795;53.236;5.704;2023-07-30T09:04:33;12.40;;;5.03;;
51718;SDS011;37795;53.236;5.704;2023-07-30T09:07:02;15.60;;;4.75;;
51718;SDS011;37795;53.236;5.704;2023-07-30T09:09:28;8.45;;;3.50;;
51718;SDS011;37795;53.236;5.704;2023-07-30T09:11:54;14.20;;;4.77;;
51718;SDS011;37795;53.236;5.704;2023-07-30T09:16:46;13.10;;;4.90;;
51718;SDS011;37795;53.236;5.704;2023-07-30T09:19:18;17.00;;;5.53;;
51718;SDS011;37795;53.236;5.704;2023-07-30T09:21:44;11.32;;;4.90;;
51718;SDS011;37795;53.236;5.704;2023-07-30T09:24:10;12.05;;;3.95;;
51718;SDS011;37795;53.236;5.704;2023-07-30T09:26:42;10.30;;;4.65;;
51718;SDS011;37795;53.236;5.704;2023-07-30T09:29:09;10.50;;;4.22;;
51718;SDS011;37795;53.236;5.704;2023-07-30T09:31:52;9.77;;;5.05;;
51718;SDS011;37795;53.236;5.704;2023-07-30T09:34:20;9.38;;;3.83;;
51718;SDS011;37795;53.236;5.704;2023-07-30T09:36:47;8.45;;;3.83;;
51718;SDS011;37795;53.236;5.704;2023-07-30T09:39:16;9.93;;;3.92;;
51718;SDS011;37795;53.236;5.704;2023-07-30T09:41:44;8.15;;;4.10;;
51718;SDS011;37795;53.236;5.704;2023-07-30T09:44:10;10.20;;;4.38;;
51718;SDS011;37795;53.236;5.704;2023-07-30T09:49:13;12.27;;;4.40;;
51718;SDS011;37795;53.236;5.704;2023-07-30T09:54:12;9.02;;;3.92;;
51718;SDS011;37795;53.236;5.704;2023-07-30T09:56:40;11.60;;;4.63;;
51718;SDS011;37795;53.236;5.704;2023-07-30T09:59:07;10.32;;;4.07;;
51718;SDS011;37795;53.236;5.704;2023-07-30T10:01:36;7.53;;;4.35;;
51718;SDS011;37795;53.236;5.704;2023-07-30T10:04:08;12.02;;;3.58;;
51718;SDS011;37795;53.236;5.704;2023-07-30T10:06:42;13.35;;;5.03;;
51718;SDS011;37795;53.236;5.704;2023-07-30T10:09:19;9.10;;;4.15;;
51718;SDS011;37795;53.236;5.704;2023-07-30T10:11:48;15.30;;;4.93;;
51718;SDS011;37795;53.236;5.704;2023-07-30T10:14:17;10.27;;;4.22;;
51718;SDS011;37795;53.236;5.704;2023-07-30T10:16:50;9.45;;;4.30;;
51718;SDS011;37795;53.236;5.704;2023-07-30T10:19:24;12.73;;;4.57;;
51718;SDS011;37795;53.236;5.704;2023-07-30T10:21:53;12.00;;;5.00;;
51718;SDS011;37795;53.236;5.704;2023-07-30T10:24:24;16.33;;;4.38;;
51718;SDS011;37795;53.236;5.704;2023-07-30T10:26:50;9.10;;;3.95;;
51718;SDS011;37795;53.236;5.704;2023-07-30T10:29:19;13.02;;;4.45;;
51718;SDS011;37795;53.236;5.704;2023-07-30T10:31:55;9.80;;;4.57;;
51718;SDS011;37795;53.236;5.704;2023-07-30T10:34:21;8.70;;;4.72;;
51718;SDS011;37795;53.236;5.704;2023-07-30T10:36:50;7.55;;;4.97;;
51718;SDS011;37795;53.236;5.704;2023-07-30T10:39:21;10.07;;;4.63;;
51718;SDS011;37795;53.236;5.704;2023-07-30T10:41:53;13.93;;;5.53;;
51718;SDS011;37795;53.236;5.704;2023-07-30T10:44:24;6.03;;;4.13;;
51718;SDS011;37795;53.236;5.704;2023-07-30T10:46:57;9.25;;;4.43;;
51718;SDS011;37795;53.236;5.704;2023-07-30T10:54:59;11.10;;;4.07;;
51718;SDS011;37795;53.236;5.704;2023-07-30T10:57:29;14.18;;;4.93;;
51718;SDS011;37795;53.236;5.704;2023-07-30T10:59:59;6.00;;;3.90;;
51718;SDS011;37795;53.236;5.704;2023-07-30T11:02:25;11.93;;;4.88;;
51718;SDS011;37795;53.236;5.704;2023-07-30T11:04:50;13.48;;;3.92;;
51718;SDS011;37795;53.236;5.704;2023-07-30T11:07:17;14.98;;;3.53;;
51718;SDS011;37795;53.236;5.704;2023-07-30T11:09:44;10.50;;;3.88;;
51718;SDS011;37795;53.236;5.704;2023-07-30T11:12:09;7.93;;;3.95;;
51718;SDS011;37795;53.236;5.704;2023-07-30T11:14:35;11.80;;;5.10;;
51718;SDS011;37795;53.236;5.704;2023-07-30T11:17:01;8.95;;;3.95;;
51718;SDS011;37795;53.236;5.704;2023-07-30T11:19:28;12.45;;;3.67;;
51718;SDS011;37795;53.236;5.704;2023-07-30T11:21:55;12.20;;;4.60;;
51718;SDS011;37795;53.236;5.704;2023-07-30T11:24:22;13.63;;;4.63;;
51718;SDS011;37795;53.236;5.704;2023-07-30T11:26:58;4.60;;;3.03;;
51718;SDS011;37795;53.236;5.704;2023-07-30T11:29:25;7.25;;;3.50;;
51718;SDS011;37795;53.236;5.704;2023-07-30T11:31:50;9.75;;;4.80;;
51718;SDS011;37795;53.236;5.704;2023-07-30T11:34:16;6.10;;;3.17;;
51718;SDS011;37795;53.236;5.704;2023-07-30T11:36:43;9.45;;;3.97;;
51718;SDS011;37795;53.236;5.704;2023-07-30T11:39:10;9.18;;;3.90;;
51718;SDS011;37795;53.236;5.704;2023-07-30T11:41:36;10.10;;;3.70;;
51718;SDS011;37795;53.236;5.704;2023-07-30T11:44:04;13.35;;;4.63;;
51718;SDS011;37795;53.236;5.704;2023-07-30T11:46:30;6.13;;;2.95;;
51718;SDS011;37795;53.236;5.704;2023-07-30T11:49:11;7.43;;;3.20;;
51718;SDS011;37795;53.236;5.704;2023-07-30T11:51:38;9.02;;;2.92;;
51718;SDS011;37795;53.236;5.704;2023-07-30T11:54:05;8.90;;;3.10;;
51718;SDS011;37795;53.236;5.704;2023-07-30T11:56:33;6.32;;;2.97;;
51718;SDS011;37795;53.236;5.704;2023-07-30T11:59:05;4.60;;;2.70;;
51718;SDS011;37795;53.236;5.704;2023-07-30T12:01:32;9.57;;;3.05;;
51718;SDS011;37795;53.236;5.704;2023-07-30T12:04:00;8.27;;;3.13;;
51718;SDS011;37795;53.236;5.704;2023-07-30T12:06:47;6.47;;;3.22;;
51718;SDS011;37795;53.236;5.704;2023-07-30T12:09:17;9.32;;;3.10;;
51718;SDS011;37795;53.236;5.704;2023-07-30T12:11:53;7.63;;;3.15;;
51718;SDS011;37795;53.236;5.704;2023-07-30T12:14:22;10.30;;;3.60;;
51718;SDS011;37795;53.236;5.704;2023-07-30T12:16:55;11.25;;;4.05;;
51718;SDS011;37795;53.236;5.704;2023-07-30T12:19:21;6.32;;;3.15;;
51718;SDS011;37795;53.236;5.704;2023-07-30T12:21:47;12.25;;;3.83;;
51718;SDS011;37795;53.236;5.704;2023-07-30T12:24:12;9.10;;;3.70;;
51718;SDS011;37795;53.236;5.704;2023-07-30T12:26:38;8.27;;;3.13;;
51718;SDS011;37795;53.236;5.704;2023-07-30T12:29:04;7.93;;;2.88;;
51718;SDS011;37795;53.236;5.704;2023-07-30T12:31:30;8.65;;;3.38;;
51718;SDS011;37795;53.236;5.704;2023-07-30T12:33:55;8.23;;;3.28;;
51718;SDS011;37795;53.236;5.704;2023-07-30T12:36:21;9.45;;;3.35;;
51718;SDS011;37795;53.236;5.704;2023-07-30T12:38:47;12.38;;;3.88;;
51718;SDS011;37795;53.236;5.704;2023-07-30T12:41:12;6.28;;;3.40;;
51718;SDS011;37795;53.236;5.704;2023-07-30T12:43:38;14.25;;;3.70;;
51718;SDS011;37795;53.236;5.704;2023-07-30T12:46:04;10.25;;;3.45;;
51718;SDS011;37795;53.236;5.704;2023-07-30T12:48:30;8.90;;;2.83;;
51718;SDS011;37795;53.236;5.704;2023-07-30T12:50:55;5.72;;;2.70;;
51718;SDS011;37795;53.236;5.704;2023-07-30T12:53:21;6.20;;;3.28;;
51718;SDS011;37795;53.236;5.704;2023-07-30T12:55:47;8.38;;;2.95;;
51718;SDS011;37795;53.236;5.704;2023-07-30T12:58:13;11.10;;;3.40;;
51718;SDS011;37795;53.236;5.704;2023-07-30T13:00:39;16.67;;;4.88;;
51718;SDS011;37795;53.236;5.704;2023-07-30T13:03:05;7.93;;;3.42;;
51718;SDS011;37795;53.236;5.704;2023-07-30T13:05:31;8.98;;;3.53;;
51718;SDS011;37795;53.236;5.704;2023-07-30T13:07:57;16.23;;;3.50;;
51718;SDS011;37795;53.236;5.704;2023-07-30T13:10:23;7.82;;;3.80;;
51718;SDS011;37795;53.236;5.704;2023-07-30T13:12:48;8.10;;;3.25;;
51718;SDS011;37795;53.236;5.704;2023-07-30T13:15:14;5.97;;;2.75;;
51718;SDS011;37795;53.236;5.704;2023-07-30T13:17:40;4.93;;;3.40;;
51718;SDS011;37795;53.236;5.704;2023-07-30T13:20:06;7.25;;;3.47;;
51718;SDS011;37795;53.236;5.704;2023-07-30T13:24:57;9.48;;;3.85;;
51718;SDS011;37795;53.236;5.704;2023-07-30T13:27:23;4.82;;;2.33;;
51718;SDS011;37795;53.236;5.704;2023-07-30T13:29:49;11.45;;;3.67;;
51718;SDS011;37795;53.236;5.704;2023-07-30T13:32:15;8.05;;;2.50;;
51718;SDS011;37795;53.236;5.704;2023-07-30T13:34:41;5.05;;;2.67;;
51718;SDS011;37795;53.236;5.704;2023-07-30T13:37:06;8.07;;;3.40;;
51718;SDS011;37795;53.236;5.704;2023-07-30T13:39:32;3.95;;;2.38;;
51718;SDS011;37795;53.236;5.704;2023-07-30T13:41:58;4.88;;;2.85;;
51718;SDS011;37795;53.236;5.704;2023-07-30T13:44:24;8.10;;;2.88;;
51718;SDS011;37795;53.236;5.704;2023-07-30T13:46:49;5.22;;;2.38;;
51718;SDS011;37795;53.236;5.704;2023-07-30T13:49:15;6.47;;;3.03;;
51718;SDS011;37795;53.236;5.704;2023-07-30T13:51:41;9.95;;;2.83;;
51718;SDS011;37795;53.236;5.704;2023-07-30T13:54:07;4.72;;;2.65;;
51718;SDS011;37795;53.236;5.704;2023-07-30T13:56:33;4.63;;;2.50;;
51718;SDS011;37795;53.236;5.704;2023-07-30T13:58:59;5.63;;;2.83;;
51718;SDS011;37795;53.236;5.704;2023-07-30T14:01:25;3.90;;;2.45;;
51718;SDS011;37795;53.236;5.704;2023-07-30T14:03:51;5.32;;;3.25;;
51718;SDS011;37795;53.236;5.704;2023-07-30T14:06:18;8.73;;;3.53;;
51718;SDS011;37795;53.236;5.704;2023-07-30T14:08:44;8.68;;;3.72;;
51718;SDS011;37795;53.236;5.704;2023-07-30T14:11:15;13.10;;;4.53;;
51718;SDS011;37795;53.236;5.704;2023-07-30T14:13:41;7.80;;;3.00;;
51718;SDS011;37795;53.236;5.704;2023-07-30T14:16:07;13.13;;;2.80;;
51718;SDS011;37795;53.236;5.704;2023-07-30T14:20:59;11.55;;;3.75;;
51718;SDS011;37795;53.236;5.704;2023-07-30T14:23:25;10.18;;;3.83;;
51718;SDS011;37795;53.236;5.704;2023-07-30T14:25:51;6.50;;;3.05;;
51718;SDS011;37795;53.236;5.704;2023-07-30T14:28:16;7.80;;;3.50;;
51718;SDS011;37795;53.236;5.704;2023-07-30T14:30:42;12.48;;;4.00;;
51718;SDS011;37795;53.236;5.704;2023-07-30T14:33:11;8.95;;;3.78;;
51718;SDS011;37795;53.236;5.704;2023-07-30T14:35:37;6.22;;;3.85;;
51718;SDS011;37795;53.236;5.704;2023-07-30T14:38:04;9.98;;;3.92;;
51718;SDS011;37795;53.236;5.704;2023-07-30T14:42:56;11.88;;;3.83;;
51718;SDS011;37795;53.236;5.704;2023-07-30T14:45:22;11.23;;;3.55;;
51718;SDS011;37795;53.236;5.704;2023-07-30T14:47:48;4.25;;;2.42;;
51718;SDS011;37795;53.236;5.704;2023-07-30T14:50:13;8.80;;;3.67;;
51718;SDS011;37795;53.236;5.704;2023-07-30T14:52:39;8.43;;;2.83;;
51718;SDS011;37795;53.236;5.704;2023-07-30T14:55:05;4.53;;;2.43;;
51718;SDS011;37795;53.236;5.704;2023-07-30T14:57:31;4.05;;;2.58;;
51718;SDS011;37795;53.236;5.704;2023-07-30T14:59:58;5.15;;;2.70;;
51718;SDS011;37795;53.236;5.704;2023-07-30T15:02:25;5.82;;;2.80;;
51718;SDS011;37795;53.236;5.704;2023-07-30T15:04:53;8.85;;;2.85;;
51718;SDS011;37795;53.236;5.704;2023-07-30T15:07:19;6.93;;;3.08;;